Time;durP1;ratioP1;P1;durP2;ratioP2;P2;SDS_P1;SDS_P2;PMS_P1;PMS_P2;Temp;Humidity;BMP_temperature;BMP_pressure;BME280_temperature;BME280_humidity;BME280_pressure;Samples;Min_cycle;Max_cycle;Signal;HPM_P1;HPM_P2
2021/07/01 00:02:08;;;;;;;76.88;70.45;;;;;;;;;;5036024;28;20105;-69
2021/07/01 00:04:35;;;;;;;76.30;70.18;;;;;;;;;;5035930;28;20525;-67
2021/07/01 00:07:02;;;;;;;78.50;72.20;;;;;;;;;;5035918;28;20041;-68
2021/07/01 00:09:30;;;;;;;94.28;87.25;;;;;;;;;;5035765;28;20024;-67
2021/07/01 00:12:00;;;;;;;78.53;72.15;;;;;;;;;;5035910;28;20026;-68
2021/07/01 00:14:27;;;;;;;76.85;70.50;;;;;;;;;;5034628;28;20022;-69
2021/07/01 00:16:54;;;;;;;72.10;66.07;;;;;;;;;;5034511;28;20026;-68
2021/07/01 00:19:22;;;;;;;74.70;68.70;;;;;;;;;;5035830;28;20018;-69
2021/07/01 00:21:49;;;;;;;73.57;67.43;;;;;;;;;;5035777;28;20433;-68
2021/07/01 00:24:16;;;;;;;70.55;64.85;;;;;;;;;;5035683;28;20393;-68
2021/07/01 00:26:43;;;;;;;69.82;64.15;;;;;;;;;;5035532;28;20022;-68
2021/07/01 00:29:10;;;;;;;72.72;66.93;;;;;;;;;;5035579;28;20018;-69
2021/07/01 00:31:38;;;;;;;69.47;63.92;;;;;;;;;;5035695;28;20363;-69
2021/07/01 00:34:05;;;;;;;73.00;66.90;;;;;;;;;;5035536;28;20021;-69
2021/07/01 00:36:32;;;;;;;77.20;70.60;;;;;;;;;;5035478;28;20394;-68
2021/07/01 00:39:00;;;;;;;79.43;72.63;;;;;;;;;;5035634;28;20111;-69
2021/07/01 00:41:27;;;;;;;85.40;77.85;;;;;;;;;;5035403;28;20029;-68
2021/07/01 00:43:54;;;;;;;82.93;75.40;;;;;;;;;;5035327;28;20497;-69
2021/07/01 00:46:22;;;;;;;82.22;75.05;;;;;;;;;;5035236;28;20116;-69
2021/07/01 00:48:49;;;;;;;84.22;76.70;;;;;;;;;;5035193;28;20073;-69
2021/07/01 00:51:17;;;;;;;84.90;77.20;;;;;;;;;;5035265;28;20017;-70
2021/07/01 00:53:44;;;;;;;81.32;74.00;;;;;;;;;;5034246;28;20471;-70
2021/07/01 00:56:14;;;;;;;81.35;73.82;;;;;;;;;;5034627;28;20116;-71
2021/07/01 00:58:41;;;;;;;81.95;74.53;;;;;;;;;;5035146;28;20056;-70
2021/07/01 01:01:09;;;;;;;77.70;70.63;;;;;;;;;;5034994;28;20394;-69
2021/07/01 01:03:37;;;;;;;79.90;72.70;;;;;;;;;;5034762;28;20500;-69
2021/07/01 01:06:07;;;;;;;80.43;73.13;;;;;;;;;;5034592;28;20025;-70
2021/07/01 01:08:34;;;;;;;83.53;76.13;;;;;;;;;;5034924;28;20021;-70
2021/07/01 01:11:01;;;;;;;86.20;78.57;;;;;;;;;;5034925;28;20052;-69
2021/07/01 01:13:28;;;;;;;85.28;77.97;;;;;;;;;;5034850;28;20033;-72
2021/07/01 01:15:57;;;;;;;85.13;77.70;;;;;;;;;;5034848;28;20025;-68
2021/07/01 01:18:24;;;;;;;82.95;75.95;;;;;;;;;;5034690;28;20036;-68
2021/07/01 01:20:52;;;;;;;77.75;70.95;;;;;;;;;;5034720;28;20051;-69
2021/07/01 01:23:20;;;;;;;83.35;75.75;;;;;;;;;;5034567;28;20096;-69
2021/07/01 01:25:51;;;;;;;87.60;79.95;;;;;;;;;;5034498;28;20501;-69
2021/07/01 01:28:19;;;;;;;88.75;80.85;;;;;;;;;;5034622;28;20028;-64
2021/07/01 01:30:46;;;;;;;87.70;80.00;;;;;;;;;;5035114;28;20021;-71
2021/07/01 01:33:13;;;;;;;89.45;81.45;;;;;;;;;;5034538;28;20056;-72
2021/07/01 01:35:41;;;;;;;90.65;82.72;;;;;;;;;;5034413;28;20079;-66
2021/07/01 01:38:09;;;;;;;91.53;83.68;;;;;;;;;;5034294;28;20105;-67
2021/07/01 01:40:37;;;;;;;94.05;86.25;;;;;;;;;;5034259;28;20106;-71
2021/07/01 01:43:04;;;;;;;87.47;80.13;;;;;;;;;;5034164;28;20026;-66
2021/07/01 01:45:31;;;;;;;84.65;76.85;;;;;;;;;;5033967;28;20053;-69
2021/07/01 01:47:59;;;;;;;83.50;75.97;;;;;;;;;;5034117;28;20078;-64
2021/07/01 01:50:26;;;;;;;83.57;76.38;;;;;;;;;;5034082;28;20486;-64
2021/07/01 01:52:53;;;;;;;84.30;76.85;;;;;;;;;;5034040;28;20022;-64
2021/07/01 01:55:20;;;;;;;81.90;74.68;;;;;;;;;;5033880;28;20107;-63
2021/07/01 01:57:48;;;;;;;78.28;71.63;;;;;;;;;;5033892;28;20017;-64
2021/07/01 02:00:22;;;;;;;87.35;80.05;;;;;;;;;;5034438;28;20029;-65
2021/07/01 02:02:49;;;;;;;84.00;77.50;;;;;;;;;;5033921;28;20467;-65
2021/07/01 02:05:16;;;;;;;83.93;77.18;;;;;;;;;;5032409;28;20052;-64
2021/07/01 02:07:44;;;;;;;80.25;73.25;;;;;;;;;;5033907;28;20040;-63
2021/07/01 02:10:12;;;;;;;82.63;75.32;;;;;;;;;;5033733;28;20478;-64
2021/07/01 02:12:40;;;;;;;85.32;77.72;;;;;;;;;;5033788;28;20025;-65
2021/07/01 02:15:08;;;;;;;83.53;75.82;;;;;;;;;;5033720;28;20025;-64
2021/07/01 02:17:36;;;;;;;79.72;72.57;;;;;;;;;;5031716;28;20034;-63
2021/07/01 02:20:05;;;;;;;86.60;78.80;;;;;;;;;;5033570;28;20088;-60
2021/07/01 02:22:32;;;;;;;86.10;78.70;;;;;;;;;;5033378;28;20025;-61
2021/07/01 02:25:00;;;;;;;86.85;78.68;;;;;;;;;;5033348;28;20021;-62
2021/07/01 02:27:27;;;;;;;86.43;78.40;;;;;;;;;;5033312;28;20088;-62
2021/07/01 02:29:54;;;;;;;96.75;88.28;;;;;;;;;;5033341;28;20021;-61
2021/07/01 02:32:22;;;;;;;93.43;84.80;;;;;;;;;;5033330;28;20109;-61
2021/07/01 02:34:49;;;;;;;99.35;90.05;;;;;;;;;;5033286;28;20029;-60
2021/07/01 02:37:16;;;;;;;98.53;89.15;;;;;;;;;;5033117;28;20508;-59
2021/07/01 02:39:44;;;;;;;100.72;90.88;;;;;;;;;;5033264;28;20025;-59
2021/07/01 02:42:11;;;;;;;98.68;89.88;;;;;;;;;;5033152;28;20030;-60
2021/07/01 02:44:38;;;;;;;85.95;77.75;;;;;;;;;;5033069;28;20083;-60
2021/07/01 02:47:06;;;;;;;77.72;70.35;;;;;;;;;;5033247;28;20104;-61
2021/07/01 02:49:33;;;;;;;78.82;71.22;;;;;;;;;;5033119;28;20060;-60
2021/07/01 02:52:00;;;;;;;76.18;68.97;;;;;;;;;;5033322;28;20024;-60
2021/07/01 02:54:28;;;;;;;76.70;69.97;;;;;;;;;;5032953;28;20021;-60
2021/07/01 02:56:55;;;;;;;72.63;66.00;;;;;;;;;;5032783;28;20022;-60
2021/07/01 02:59:22;;;;;;;71.43;64.97;;;;;;;;;;5032862;28;20021;-61
2021/07/01 03:01:51;;;;;;;69.47;63.17;;;;;;;;;;5032971;28;20504;-61
2021/07/01 03:04:18;;;;;;;76.13;69.43;;;;;;;;;;5032614;28;20045;-61
2021/07/01 03:06:45;;;;;;;73.03;66.90;;;;;;;;;;5032671;28;20033;-69
2021/07/01 03:09:13;;;;;;;78.40;72.05;;;;;;;;;;5032602;28;20109;-66
2021/07/01 03:11:40;;;;;;;70.55;64.47;;;;;;;;;;5032832;28;20029;-64
2021/07/01 03:14:07;;;;;;;68.45;62.60;;;;;;;;;;5032887;28;20046;-64
2021/07/01 03:16:35;;;;;;;63.60;58.17;;;;;;;;;;5032712;28;20029;-64
2021/07/01 03:19:02;;;;;;;73.05;67.18;;;;;;;;;;5032749;28;20374;-63
2021/07/01 03:21:29;;;;;;;71.13;65.32;;;;;;;;;;5032930;28;20052;-63
2021/07/01 03:23:57;;;;;;;63.53;58.22;;;;;;;;;;5032783;28;20021;-65
2021/07/01 03:26:24;;;;;;;58.78;54.15;;;;;;;;;;5033171;28;20025;-64
2021/07/01 03:28:51;;;;;;;57.47;52.53;;;;;;;;;;5036029;28;20021;-63
2021/07/01 03:31:18;;;;;;;57.10;52.33;;;;;;;;;;5036959;28;20067;-70
2021/07/01 03:33:45;;;;;;;55.60;51.30;;;;;;;;;;5036941;28;20013;-72
2021/07/01 03:36:12;;;;;;;55.53;50.88;;;;;;;;;;5037205;28;20044;-70
2021/07/01 03:38:40;;;;;;;56.30;51.90;;;;;;;;;;5037059;28;20031;-67
2021/07/01 03:41:07;;;;;;;54.38;50.00;;;;;;;;;;5035425;28;20025;-67
2021/07/01 03:43:41;;;;;;;53.30;48.92;;;;;;;;;;5036520;28;20028;-67
2021/07/01 03:46:08;;;;;;;51.58;47.55;;;;;;;;;;5036665;28;20139;-66
2021/07/01 03:48:36;;;;;;;51.97;48.10;;;;;;;;;;5036469;28;20107;-66
2021/07/01 03:51:05;;;;;;;51.10;47.20;;;;;;;;;;5036517;28;20116;-69
2021/07/01 03:53:32;;;;;;;53.95;50.15;;;;;;;;;;5036441;28;20030;-69
2021/07/01 03:56:00;;;;;;;51.15;47.15;;;;;;;;;;5036073;28;20025;-70
2021/07/01 03:58:27;;;;;;;52.67;49.08;;;;;;;;;;5036133;28;20025;-70
2021/07/01 04:00:54;;;;;;;55.70;51.83;;;;;;;;;;5036036;28;20026;-67
2021/07/01 04:03:21;;;;;;;51.90;48.03;;;;;;;;;;5036175;28;20025;-66
2021/07/01 04:05:49;;;;;;;50.63;46.88;;;;;;;;;;5034370;28;20445;-65
2021/07/01 04:08:16;;;;;;;52.20;48.05;;;;;;;;;;5035983;28;20092;-66
2021/07/01 04:10:43;;;;;;;51.95;48.10;;;;;;;;;;5036073;28;20429;-67
2021/07/01 04:13:10;;;;;;;54.25;50.08;;;;;;;;;;5035992;28;20483;-68
2021/07/01 04:15:38;;;;;;;53.55;49.35;;;;;;;;;;5035888;28;20079;-68
2021/07/01 04:18:25;;;;;;;51.97;48.08;;;;;;;;;;5035914;28;20025;-68
2021/07/01 04:20:52;;;;;;;47.80;44.13;;;;;;;;;;5034645;28;20389;-68
2021/07/01 04:23:19;;;;;;;48.42;44.58;;;;;;;;;;5035889;28;20029;-70
2021/07/01 04:25:50;;;;;;;46.67;42.85;;;;;;;;;;5035763;28;20386;-68
2021/07/01 04:28:18;;;;;;;48.17;44.47;;;17.40;99.90;;;;;;5035580;28;20079;-68
2021/07/01 04:30:45;;;;;;;47.78;44.25;;;17.40;99.90;;;;;;5035543;28;20135;-68
2021/07/01 04:33:12;;;;;;;47.13;43.55;;;17.40;99.90;;;;;;5035560;28;20021;-69
2021/07/01 04:35:47;;;;;;;45.97;42.67;;;17.30;99.90;;;;;;5035592;28;20035;-69
2021/07/01 04:38:16;;;;;;;47.53;44.00;;;17.20;99.90;;;;;;5035467;28;20029;-70
2021/07/01 04:40:44;;;;;;;44.40;41.22;;;17.10;99.90;;;;;;5034930;28;20025;-67
2021/07/01 04:43:12;;;;;;;42.72;39.50;;;17.00;99.90;;;;;;5035495;28;20021;-68
2021/07/01 04:45:39;;;;;;;42.50;39.33;;;16.80;99.90;;;;;;5035219;28;20049;-69
2021/07/01 04:48:07;;;;;;;42.17;39.28;;;16.90;99.90;;;;;;5035282;28;20536;-67
2021/07/01 04:50:35;;;;;;;40.80;38.17;;;16.80;99.90;;;;;;5035404;28;20421;-67
2021/07/01 04:53:02;;;;;;;41.15;38.47;;;16.80;99.90;;;;;;5035134;28;20394;-61
2021/07/01 04:55:30;;;;;;;40.30;37.80;;;16.80;99.90;;;;;;5035157;28;20022;-62
2021/07/01 04:57:57;;;;;;;40.70;38.10;;;16.80;99.90;;;;;;5035439;28;20462;-61
2021/07/01 05:00:24;;;;;;;41.72;39.10;;;16.80;99.90;;;;;;5035176;28;20029;-62
2021/07/01 05:02:52;;;;;;;41.10;38.65;;;16.60;99.90;;;;;;5035141;28;20025;-62
2021/07/01 05:05:19;;;;;;;38.95;36.38;;;16.60;99.90;;;;;;5034795;28;20044;-69
2021/07/01 05:07:47;;;;;;;39.80;36.95;;;16.60;99.90;;;;;;5034917;28;20021;-66
2021/07/01 05:10:16;;;;;;;39.03;36.25;;;16.60;99.90;;;;;;5034888;28;20102;-67
2021/07/01 05:12:44;;;;;;;44.17;41.20;;;16.50;99.90;;;;;;5035310;28;20029;-65
2021/07/01 05:15:12;;;;;;;44.53;41.42;;;16.40;99.90;;;;;;5035204;28;20565;-64
2021/07/01 05:17:39;;;;;;;45.10;41.88;;;16.30;99.90;;;;;;5034890;28;20110;-69
2021/07/01 05:20:08;;;;;;;45.83;42.75;;;16.30;99.90;;;;;;5034835;28;20056;-70
2021/07/01 05:22:36;;;;;;;44.08;41.38;;;16.20;99.90;;;;;;5034723;28;20021;-63
2021/07/01 05:25:04;;;;;;;46.30;43.40;;;16.20;99.90;;;;;;5034543;28;20053;-63
2021/07/01 05:27:32;;;;;;;47.30;44.28;;;16.10;99.90;;;;;;5034486;28;20022;-69
2021/07/01 05:29:59;;;;;;;47.58;44.33;;;16.20;99.90;;;;;;5034498;28;20013;-69
2021/07/01 05:32:26;;;;;;;45.53;42.35;;;16.10;99.90;;;;;;5033225;28;20018;-69
2021/07/01 05:34:54;;;;;;;46.17;43.38;;;16.00;99.90;;;;;;5034508;28;20025;-67
2021/07/01 05:37:21;;;;;;;46.75;43.67;;;16.00;99.90;;;;;;5034377;28;20044;-66
2021/07/01 05:39:48;;;;;;;48.25;45.15;;;15.90;99.90;;;;;;5034179;28;20029;-68
2021/07/01 05:42:15;;;;;;;48.20;44.78;;;16.00;99.90;;;;;;5034159;28;20083;-62
2021/07/01 05:44:44;;;;;;;49.25;45.80;;;15.90;99.90;;;;;;5034177;28;20025;-62
2021/07/01 05:47:11;;;;;;;47.97;44.80;;;15.80;99.90;;;;;;5034120;28;20020;-64
2021/07/01 05:49:39;;;;;;;48.80;45.58;;;15.80;99.90;;;;;;5034078;28;20021;-64
2021/07/01 05:52:07;;;;;;;49.20;45.78;;;15.70;99.90;;;;;;5033864;28;20032;-63
2021/07/01 05:54:52;;;;;;;48.88;45.47;;;15.60;99.90;;;;;;5033742;28;20025;-64
2021/07/01 05:57:19;;;;;;;49.20;46.00;;;15.70;99.90;;;;;;5034286;28;20029;-63
2021/07/01 05:59:47;;;;;;;48.72;45.25;;;15.70;99.90;;;;;;5033997;28;20501;-64
2021/07/01 06:02:14;;;;;;;50.40;46.72;;;15.60;99.90;;;;;;5033769;28;20382;-64
2021/07/01 06:04:41;;;;;;;49.75;46.10;;;15.60;99.90;;;;;;5033636;28;20508;-68
2021/07/01 06:07:10;;;;;;;49.47;46.38;;;15.60;99.90;;;;;;5032578;28;20029;-65
2021/07/01 06:09:40;;;;;;;49.63;46.42;;;15.50;99.90;;;;;;5033664;28;20024;-64
2021/07/01 06:12:07;;;;;;;48.33;44.75;;;15.50;99.90;;;;;;5033640;28;20013;-64
2021/07/01 06:14:35;;;;;;;51.35;47.67;;;15.40;99.90;;;;;;5033576;28;20390;-65
2021/07/01 06:17:05;;;;;;;50.90;47.30;;;15.40;99.90;;;;;;5033531;28;20029;-65
2021/07/01 06:19:33;;;;;;;52.67;49.00;;;15.40;99.90;;;;;;5033467;28;20032;-64
2021/07/01 06:22:00;;;;;;;52.08;48.28;;;15.30;99.90;;;;;;5033408;28;20453;-64
2021/07/01 06:24:29;;;;;;;48.63;44.80;;;15.30;99.90;;;;;;5033382;28;20028;-66
2021/07/01 06:27:00;;;;;;;48.60;44.92;;;15.30;99.90;;;;;;5033403;28;20105;-66
2021/07/01 06:29:28;;;;;;;49.20;45.47;;;15.30;99.90;;;;;;5033495;28;20071;-67
2021/07/01 06:31:55;;;;;;;52.35;48.55;;;15.30;99.90;;;;;;5033370;28;20025;-64
2021/07/01 06:34:23;;;;;;;52.13;48.28;;;15.20;99.90;;;;;;5033434;28;20025;-65
2021/07/01 06:36:55;;;;;;;54.45;50.15;;;15.10;99.90;;;;;;5033078;28;20391;-66
2021/07/01 06:39:25;;;;;;;56.30;52.20;;;15.10;99.90;;;;;;5033170;28;20021;-66
2021/07/01 06:41:54;;;;;;;53.97;50.10;;;15.00;99.90;;;;;;5032971;28;20033;-65
2021/07/01 06:44:22;;;;;;;54.28;49.92;;;15.00;99.90;;;;;;5032938;28;20116;-64
2021/07/01 06:46:51;;;;;;;53.97;49.50;;;14.90;99.90;;;;;;5033268;28;20382;-64
2021/07/01 06:49:20;;;;;;;54.75;50.15;;;14.90;99.90;;;;;;5033033;28;20474;-65
2021/07/01 06:51:49;;;;;;;56.42;51.78;;;14.90;99.90;;;;;;5032931;28;20014;-64
2021/07/01 06:54:18;;;;;;;57.10;52.58;;;14.80;99.90;;;;;;5032794;28;20051;-65
2021/07/01 06:56:45;;;;;;;56.15;51.65;;;14.80;99.90;;;;;;5032999;28;20028;-64
2021/07/01 06:59:14;;;;;;;54.80;50.50;;;14.70;99.90;;;;;;5032751;28;20029;-67
2021/07/01 07:01:41;;;;;;;55.25;50.70;;;14.70;99.90;;;;;;5032503;28;20573;-66
2021/07/01 07:04:10;;;;;;;54.28;50.00;;;14.70;99.90;;;;;;5032546;28;20136;-66
2021/07/01 07:06:40;;;;;;;55.30;50.60;;;14.70;99.90;;;;;;5032911;28;20029;-67
2021/07/01 07:09:08;;;;;;;54.10;49.80;;;14.60;99.90;;;;;;5033009;28;20026;-66
2021/07/01 07:11:36;;;;;;;56.30;51.40;;;14.70;99.90;;;;;;5032761;28;20250;-66
2021/07/01 07:14:04;;;;;;;55.95;50.80;;;14.60;99.90;;;;;;5032833;28;20021;-66
2021/07/01 07:16:34;;;;;;;55.45;50.40;;;14.60;99.90;;;;;;5032791;28;20041;-66
2021/07/01 07:19:04;;;;;;;55.92;51.22;;;14.60;99.90;;;;;;5032895;28;20056;-64
2021/07/01 07:21:37;;;;;;;57.13;52.53;;;14.50;99.90;;;;;;5032736;28;20044;-65
2021/07/01 07:24:05;;;;;;;55.25;50.65;;;14.50;99.90;;;;;;5032711;28;20025;-67
2021/07/01 07:26:33;;;;;;;55.13;50.20;;;14.60;99.90;;;;;;5032619;28;20486;-64
2021/07/01 07:29:02;;;;;;;53.75;49.58;;;14.60;99.90;;;;;;5032628;28;20372;-65
2021/07/01 07:31:33;;;;;;;56.28;51.75;;;14.60;99.90;;;;;;5032685;28;20021;-64
2021/07/01 07:34:05;;;;;;;57.70;52.95;;;14.60;99.90;;;;;;5032830;28;20014;-65
2021/07/01 07:36:34;;;;;;;55.42;50.92;;;14.50;99.90;;;;;;5032790;28;20116;-66
2021/07/01 07:39:04;;;;;;;55.80;51.10;;;14.50;99.90;;;;;;5032642;28;20029;-65
2021/07/01 07:41:31;;;;;;;55.45;50.85;;;14.30;99.90;;;;;;5032696;28;20025;-66
2021/07/01 07:43:58;;;;;;;55.78;50.72;;;14.50;99.90;;;;;;5032888;28;20076;-68
2021/07/01 07:46:29;;;;;;;54.92;50.13;;;14.50;99.90;;;;;;5032414;28;20029;-64
2021/07/01 07:48:56;;;;;;;55.83;51.22;;;14.50;99.90;;;;;;5032910;28;20386;-65
2021/07/01 07:51:32;;;;;;;56.60;52.05;;;14.60;99.90;;;;;;5032473;28;20033;-65
2021/07/01 07:54:06;;;;;;;58.25;53.17;;;14.50;99.90;;;;;;5032659;28;20026;-65
2021/07/01 07:56:37;;;;;;;56.40;51.85;;;14.50;99.90;;;;;;5032666;28;20034;-64
2021/07/01 07:59:06;;;;;;;60.35;55.42;;;14.50;99.90;;;;;;5032363;28;20104;-65
2021/07/01 08:01:35;;;;;;;62.83;57.40;;;14.50;99.90;;;;;;5032419;28;20029;-66
2021/07/01 08:04:08;;;;;;;58.50;53.63;;;14.50;99.90;;;;;;5032241;28;20080;-66
2021/07/01 08:06:38;;;;;;;58.08;53.70;;;14.50;99.90;;;;;;5032264;28;20034;-67
2021/07/01 08:09:06;;;;;;;61.30;56.20;;;14.50;99.90;;;;;;5032258;28;20022;-66
2021/07/01 08:11:35;;;;;;;55.85;51.05;;;14.50;99.90;;;;;;5032237;28;20498;-66
2021/07/01 08:14:03;;;;;;;58.00;52.92;;;14.50;99.90;;;;;;5032562;28;20509;-68
2021/07/01 08:16:31;;;;;;;57.85;53.08;;;14.50;99.90;;;;;;5035764;28;20393;-67
2021/07/01 08:19:00;;;;;;;59.10;54.13;;;14.50;99.90;;;;;;5035654;28;20370;-67
2021/07/01 08:21:28;;;;;;;58.03;53.50;;;14.50;99.90;;;;;;5035478;28;20025;-65
2021/07/01 08:23:57;;;;;;;64.53;59.67;;;14.50;99.90;;;;;;5035362;28;20508;-65
2021/07/01 08:26:25;;;;;;;63.88;58.78;;;14.40;99.90;;;;;;5035573;28;20032;-64
2021/07/01 08:28:54;;;;;;;64.45;59.22;;;14.50;99.90;;;;;;5035687;28;20026;-64
2021/07/01 08:31:22;;;;;;;62.15;57.25;;;14.40;99.90;;;;;;5035907;28;20021;-62
2021/07/01 08:33:51;;;;;;;62.22;57.15;;;14.50;99.90;;;;;;5035547;28;20556;-65
2021/07/01 08:36:24;;;;;;;61.85;56.33;;;14.50;99.90;;;;;;5035470;28;20367;-64
2021/07/01 08:38:53;;;;;;;63.60;58.05;;;14.50;99.90;;;;;;5035653;28;20033;-64
2021/07/01 08:41:24;;;;;;;65.20;59.50;;;14.50;99.90;;;;;;5035330;28;20053;-64
2021/07/01 08:44:08;;;;;;;62.78;57.47;;;14.50;99.90;;;;;;5035393;28;20088;-64
2021/07/01 08:47:22;;;;;;;61.60;56.50;;;14.50;99.90;;;;;;5035353;28;20437;-64
2021/07/01 08:50:01;;;;;;;59.35;54.60;;;14.40;99.90;;;;;;5035196;28;20025;-65
2021/07/01 08:52:31;;;;;;;59.60;54.85;;;14.50;99.90;;;;;;5035334;28;20056;-65
2021/07/01 08:55:04;;;;;;;59.80;54.75;;;14.50;99.90;;;;;;5035290;28;20385;-67
2021/07/01 08:57:36;;;;;;;61.08;55.83;;;14.40;99.90;;;;;;5035209;28;20017;-63
2021/07/01 09:00:09;;;;;;;60.40;55.45;;;14.40;99.90;;;;;;5035102;28;20025;-66
2021/07/01 09:02:59;;;;;;;61.03;55.67;;;14.40;99.90;;;;;;5035124;28;20014;-66
2021/07/01 09:05:29;;;;;;;61.95;56.33;;;14.40;99.90;;;;;;5034847;28;20076;-64
2021/07/01 09:08:00;;;;;;;59.13;54.28;;;14.40;99.90;;;;;;5034969;28;20494;-66
2021/07/01 09:10:30;;;;;;;60.40;54.95;;;14.40;99.90;;;;;;5035049;28;20017;-65
2021/07/01 09:12:59;;;;;;;59.10;54.28;;;14.40;99.90;;;;;;5034999;28;20033;-65
2021/07/01 09:15:29;;;;;;;60.13;54.80;;;14.40;99.90;;;;;;5034901;28;20021;-67
2021/07/01 09:17:56;;;;;;;54.13;49.33;;;14.40;99.90;;;;;;5033836;28;20061;-65
2021/07/01 09:20:28;;;;;;;59.95;54.67;;;14.50;99.90;;;;;;5034994;28;20062;-65
2021/07/01 09:22:57;;;;;;;54.03;49.28;;;14.50;99.90;;;;;;5034917;28;20087;-64
2021/07/01 09:25:25;;;;;;;54.42;49.42;;;14.40;99.90;;;;;;5034196;28;20047;-67
2021/07/01 09:27:54;;;;;;;54.13;49.22;;;14.50;99.90;;;;;;5034618;28;20026;-68
2021/07/01 09:30:25;;;;;;;57.47;52.78;;;14.50;99.90;;;;;;5034578;28;20397;-69
2021/07/01 09:33:08;;;;;;;55.83;50.65;;;14.40;99.90;;;;;;5034555;28;20026;-67
2021/07/01 09:35:37;;;;;;;56.55;51.53;;;14.50;99.90;;;;;;5034449;28;20025;-66
2021/07/01 09:38:07;;;;;;;59.55;54.13;;;14.50;99.90;;;;;;5034388;28;20022;-66
2021/07/01 09:40:36;;;;;;;58.85;54.00;;;14.40;99.90;;;;;;5034439;28;20057;-66
2021/07/01 09:43:07;;;;;;;57.97;53.03;;;14.40;99.90;;;;;;5033210;28;20025;-67
2021/07/01 09:45:36;;;;;;;62.92;57.58;;;14.40;99.90;;;;;;5034462;28;20029;-67
2021/07/01 09:48:06;;;;;;;63.95;58.22;;;14.30;99.90;;;;;;5034398;28;20033;-67
2021/07/01 09:50:37;;;;;;;62.15;56.92;;;14.30;99.90;;;;;;5034446;28;20063;-67
2021/07/01 09:53:05;;;;;;;61.08;55.70;;;14.30;99.90;;;;;;5034394;28;20024;-64
2021/07/01 09:55:33;;;;;;;58.92;53.47;;;14.30;99.90;;;;;;5033989;28;20583;-66
2021/07/01 09:58:07;;;;;;;56.63;51.65;;;14.20;99.90;;;;;;5034058;28;20119;-65
2021/07/01 10:00:35;;;;;;;57.47;51.92;;;14.20;99.90;;;;;;5034024;28;20040;-65
2021/07/01 10:03:04;;;;;;;56.58;51.55;;;14.20;99.90;;;;;;5034027;28;20049;-65
2021/07/01 10:05:32;;;;;;;60.38;54.50;;;14.10;99.90;;;;;;5033851;28;20402;-65
2021/07/01 10:07:59;;;;;;;59.65;54.30;;;14.20;99.90;;;;;;5033946;28;20018;-65
2021/07/01 10:10:27;;;;;;;61.08;55.47;;;14.10;99.90;;;;;;5033868;28;20056;-65
2021/07/01 10:12:59;;;;;;;72.70;66.90;;;14.20;99.90;;;;;;5033952;28;20028;-65
2021/07/01 10:15:35;;;;;;;70.05;64.47;;;14.10;99.90;;;;;;5032488;28;20076;-65
2021/07/01 10:18:06;;;;;;;66.03;60.05;;;14.10;99.90;;;;;;5033768;28;20482;-65
2021/07/01 10:20:43;;;;;;;69.00;63.70;;;14.10;99.90;;;;;;5033977;28;20025;-65
2021/07/01 10:23:33;;;;;;;59.45;54.55;;;14.10;99.90;;;;;;5033798;28;20024;-65
2021/07/01 10:26:12;;;;;;;58.05;52.90;;;14.10;99.90;;;;;;5032288;28;20052;-65
2021/07/01 10:28:40;;;;;;;61.40;56.00;;;14.10;99.90;;;;;;5033655;28;20478;-65
2021/07/01 10:31:13;;;;;;;60.33;54.95;;;14.00;99.90;;;;;;5033518;28;20017;-65
2021/07/01 10:33:44;;;;;;;59.13;53.70;;;14.00;99.90;;;;;;5033527;28;20048;-67
2021/07/01 10:36:24;;;;;;;61.88;56.08;;;14.00;99.90;;;;;;5033598;28;20040;-66
2021/07/01 10:38:54;;;;;;;62.80;57.05;;;14.00;99.90;;;;;;5032962;28;20453;-65
2021/07/01 10:41:43;;;;;;;62.65;57.22;;;14.00;99.90;;;;;;5032077;28;20597;-65
2021/07/01 10:44:23;;;;;;;59.83;54.25;;;14.00;99.90;;;;;;5033413;28;20017;-66
2021/07/01 10:46:50;;;;;;;59.50;54.03;;;13.90;99.90;;;;;;5031951;28;20029;-64
2021/07/01 10:49:30;;;;;;;60.83;54.75;;;14.00;99.90;;;;;;5033294;28;20481;-64
2021/07/01 10:51:58;;;;;;;62.65;57.08;;;14.10;99.90;;;;;;5033153;28;20021;-63
2021/07/01 10:54:26;;;;;;;65.82;60.17;;;14.00;99.90;;;;;;5033027;28;20034;-65
2021/07/01 10:57:28;;;;;;;78.90;72.50;;;14.00;99.90;;;;;;5033079;28;20021;-65
2021/07/01 10:59:57;;;;;;;67.00;61.28;;;14.00;99.90;;;;;;5032503;28;20505;-65
2021/07/01 11:02:32;;;;;;;77.68;71.78;;;14.00;99.90;;;;;;5033113;28;20026;-63
2021/07/01 11:05:06;;;;;;;65.43;59.95;;;14.00;99.90;;;;;;5032665;28;20073;-63
2021/07/01 11:07:45;;;;;;;75.40;69.50;;;14.00;99.90;;;;;;5032931;28;20056;-63
2021/07/01 11:10:14;;;;;;;65.15;59.60;;;14.00;99.90;;;;;;5032864;28;20056;-64
2021/07/01 11:12:44;;;;;;;73.40;67.18;;;14.00;99.90;;;;;;5032860;28;20044;-65
2021/07/01 11:15:12;;;;;;;71.47;65.70;;;14.00;99.90;;;;;;5032863;28;20028;-66
2021/07/01 11:17:42;;;;;;;72.88;66.78;;;14.00;99.90;;;;;;5033002;28;20033;-66
2021/07/01 11:20:16;;;;;;;81.65;74.88;;;13.90;99.90;;;;;;5032841;28;20018;-66
2021/07/01 11:22:45;;;;;;;83.47;76.50;;;13.80;99.90;;;;;;5032992;28;20022;-66
2021/07/01 11:25:45;;;;;;;86.43;79.72;;;13.80;99.90;;;;;;5033041;28;20029;-65
2021/07/01 11:28:17;;;;;;;81.53;75.00;;;13.80;99.90;;;;;;5031453;28;20128;-65
2021/07/01 11:30:58;;;;;;;78.40;71.93;;;13.80;99.90;;;;;;5032869;28;20024;-65
2021/07/01 11:33:24;;;;;;;;;;;13.70;99.90;;;;;;5033214;28;20033;-66
2021/07/01 11:36:09;;;;;;;74.63;68.25;;;13.70;99.90;;;;;;5032735;28;19909;-65
2021/07/01 11:38:37;;;;;;;81.22;74.60;;;13.70;99.90;;;;;;5032778;28;20097;-67
2021/07/01 11:41:06;;;;;;;76.20;70.05;;;13.70;99.90;;;;;;5032683;28;20021;-65
2021/07/01 11:43:37;;;;;;;82.55;76.03;;;13.70;99.90;;;;;;5032654;28;20462;-65
2021/07/01 11:46:05;;;;;;;78.30;71.70;;;13.70;99.90;;;;;;5032597;28;20104;-65
2021/07/01 11:48:34;;;;;;;79.57;73.35;;;13.70;99.90;;;;;;5033665;28;20390;-65
2021/07/01 11:51:05;;;;;;;75.93;69.90;;;13.70;99.90;;;;;;5036548;28;20100;-65
2021/07/01 11:53:33;;;;;;;79.07;72.70;;;13.70;99.90;;;;;;5036445;28;20025;-66
2021/07/01 11:56:01;;;;;;;77.85;71.68;;;13.70;99.90;;;;;;5036338;28;20083;-65
2021/07/01 11:58:31;;;;;;;73.53;67.38;;;13.60;99.90;;;;;;5036353;28;20517;-65
2021/07/01 12:00:59;;;;;;;79.35;73.03;;;13.70;99.90;;;;;;5036351;28;20030;-66
2021/07/01 12:03:28;;;;;;;81.05;74.65;;;13.70;99.90;;;;;;5036068;28;20032;-64
2021/07/01 12:05:57;;;;;;;74.55;68.50;;;13.80;99.90;;;;;;5036391;28;20053;-65
2021/07/01 12:08:26;;;;;;;78.75;72.38;;;13.70;99.90;;;;;;5036254;28;20367;-66
2021/07/01 12:11:05;;;;;;;72.88;66.72;;;13.60;99.90;;;;;;5036290;28;20508;-66
2021/07/01 12:13:32;;;;;;;78.30;71.80;;;13.50;99.90;;;;;;5036043;28;20037;-65
2021/07/01 12:16:11;;;;;;;80.90;74.57;;;13.50;99.90;;;;;;5036010;28;20064;-67
2021/07/01 12:18:45;;;;;;;79.80;73.10;;;13.50;99.90;;;;;;5036033;28;20029;-66
2021/07/01 12:21:13;;;;;;;74.63;68.18;;;13.50;99.90;;;;;;5035903;28;20034;-66
2021/07/01 12:23:48;;;;;;;78.47;72.22;;;13.50;99.90;;;;;;5034671;28;20501;-66
2021/07/01 12:26:41;;;;;;;74.38;68.00;;;13.40;99.90;;;;;;5035864;28;20026;-66
2021/07/01 12:29:32;;;;;;;75.72;69.35;;;13.40;99.90;;;;;;5035824;28;20100;-65
2021/07/01 12:32:24;;;;;;;74.90;68.90;;;13.40;99.90;;;;;;5035678;28;20064;-66
2021/07/01 12:34:51;;;;;;;75.15;68.80;;;13.40;99.90;;;;;;5035020;28;20048;-65
2021/07/01 12:37:20;;;;;;;74.57;68.28;;;13.30;99.90;;;;;;5035603;28;20072;-65
2021/07/01 12:39:48;;;;;;;75.03;68.60;;;13.30;99.90;;;;;;5035603;28;20071;-65
2021/07/01 12:42:15;;;;;;;71.95;66.30;;;13.30;99.90;;;;;;5035635;28;20160;-67
2021/07/01 12:44:44;;;;;;;74.25;67.75;;;13.30;99.90;;;;;;5034367;28;20033;-66
2021/07/01 12:47:37;;;;;;;77.95;71.80;;;13.30;99.90;;;;;;5035467;28;20033;-65
2021/07/01 12:50:11;;;;;;;81.80;75.90;;;13.30;99.90;;;;;;5035456;28;20018;-65
2021/07/01 12:52:43;;;;;;;78.40;72.57;;;13.30;99.90;;;;;;5035534;28;20478;-65
2021/07/01 12:55:18;;;;;;;79.88;73.57;;;13.20;99.90;;;;;;5035283;28;20030;-65
2021/07/01 12:57:46;;;;;;;82.95;76.75;;;13.20;99.90;;;;;;5035410;28;20018;-65
2021/07/01 13:00:14;;;;;;;84.28;78.28;;;13.20;99.90;;;;;;5034488;28;20031;-66
2021/07/01 13:02:41;;;;;;;84.00;77.90;;;13.20;99.90;;;;;;5035451;28;20029;-65
2021/07/01 13:05:12;;;;;;;78.55;72.78;;;13.20;99.90;;;;;;5035009;28;20049;-66
2021/07/01 13:07:39;;;;;;;83.05;77.22;;;13.10;99.90;;;;;;5035144;28;20085;-66
2021/07/01 13:10:08;;;;;;;78.68;72.70;;;13.10;99.90;;;;;;5035119;28;20025;-66
2021/07/01 13:12:41;;;;;;;79.45;73.47;;;13.10;99.90;;;;;;5035063;28;20029;-66
2021/07/01 13:15:12;;;;;;;79.07;73.28;;;13.10;99.90;;;;;;5035023;28;20029;-66